sensor_id;sensor_type;location;lat;lon;timestamp;pressure;altitude;pressure_sealevel;temperature;humidity
70506;BME280;58032;49.820;6.274;2023-04-15T00:00:10;96676.00;;;4.37;100.00
70506;BME280;58032;49.820;6.274;2023-04-15T00:02:40;96666.31;;;4.42;100.00
70506;BME280;58032;49.820;6.274;2023-04-15T00:05:07;96667.44;;;4.44;100.00
70506;BME280;58032;49.820;6.274;2023-04-15T00:07:35;96661.72;;;4.35;100.00
70506;BME280;58032;49.820;6.274;2023-04-15T00:10:01;96664.25;;;4.30;100.00
70506;BME280;58032;49.820;6.274;2023-04-15T00:12:30;96662.41;;;4.39;100.00
70506;BME280;58032;49.820;6.274;2023-04-15T00:14:58;96665.63;;;4.38;100.00
70506;BME280;58032;49.820;6.274;2023-04-15T00:17:25;96661.63;;;4.39;100.00
70506;BME280;58032;49.820;6.274;2023-04-15T00:19:52;96661.75;;;4.48;100.00
70506;BME280;58032;49.820;6.274;2023-04-15T00:22:20;96652.53;;;4.51;100.00
70506;BME280;58032;49.820;6.274;2023-04-15T00:24:48;96654.31;;;4.58;100.00
70506;BME280;58032;49.820;6.274;2023-04-15T00:27:15;96663.38;;;4.62;100.00
70506;BME280;58032;49.820;6.274;2023-04-15T00:29:42;96665.81;;;4.60;100.00
70506;BME280;58032;49.820;6.274;2023-04-15T00:32:09;96671.38;;;4.60;100.00
70506;BME280;58032;49.820;6.274;2023-04-15T00:34:35;96678.88;;;4.34;100.00
70506;BME280;58032;49.820;6.274;2023-04-15T00:37:02;96680.22;;;4.12;100.00
70506;BME280;58032;49.820;6.274;2023-04-15T00:39:29;96679.13;;;4.10;100.00
70506;BME280;58032;49.820;6.274;2023-04-15T00:41:56;96676.69;;;4.12;100.00
70506;BME280;58032;49.820;6.274;2023-04-15T00:44:23;96677.44;;;4.12;100.00
70506;BME280;58032;49.820;6.274;2023-04-15T00:46:50;96681.25;;;4.19;100.00
70506;BME280;58032;49.820;6.274;2023-04-15T00:49:17;96670.91;;;4.19;100.00
70506;BME280;58032;49.820;6.274;2023-04-15T00:51:45;96678.16;;;4.17;100.00
70506;BME280;58032;49.820;6.274;2023-04-15T00:54:12;96674.56;;;4.16;100.00
70506;BME280;58032;49.820;6.274;2023-04-15T00:56:39;96671.88;;;4.12;100.00
70506;BME280;58032;49.820;6.274;2023-04-15T00:59:08;96659.78;;;4.19;100.00
70506;BME280;58032;49.820;6.274;2023-04-15T01:01:35;96666.31;;;4.12;100.00
70506;BME280;58032;49.820;6.274;2023-04-15T01:04:03;96653.50;;;4.15;100.00
70506;BME280;58032;49.820;6.274;2023-04-15T01:06:31;96647.81;;;4.19;100.00
70506;BME280;58032;49.820;6.274;2023-04-15T01:08:58;96641.28;;;4.25;100.00
70506;BME280;58032;49.820;6.274;2023-04-15T01:11:26;96643.31;;;4.25;100.00
70506;BME280;58032;49.820;6.274;2023-04-15T01:13:54;96636.31;;;4.04;100.00
70506;BME280;58032;49.820;6.274;2023-04-15T01:16:23;96633.03;;;3.76;100.00
70506;BME280;58032;49.820;6.274;2023-04-15T01:18:51;96641.25;;;3.67;100.00
70506;BME280;58032;49.820;6.274;2023-04-15T01:21:18;96630.88;;;3.67;100.00
70506;BME280;58032;49.820;6.274;2023-04-15T01:23:46;96636.97;;;3.62;100.00
70506;BME280;58032;49.820;6.274;2023-04-15T01:26:14;96640.44;;;3.66;100.00
70506;BME280;58032;49.820;6.274;2023-04-15T01:28:42;96635.16;;;3.55;100.00
70506;BME280;58032;49.820;6.274;2023-04-15T01:31:11;96637.34;;;3.47;100.00
70506;BME280;58032;49.820;6.274;2023-04-15T01:33:42;96640.22;;;3.44;100.00
70506;BME280;58032;49.820;6.274;2023-04-15T01:36:27;96637.16;;;3.38;100.00
70506;BME280;58032;49.820;6.274;2023-04-15T01:38:55;96636.38;;;3.38;100.00
70506;BME280;58032;49.820;6.274;2023-04-15T01:41:26;96634.72;;;3.40;100.00
70506;BME280;58032;49.820;6.274;2023-04-15T01:43:54;96638.19;;;3.44;100.00
70506;BME280;58032;49.820;6.274;2023-04-15T01:46:23;96637.56;;;3.53;100.00
70506;BME280;58032;49.820;6.274;2023-04-15T01:48:51;96642.63;;;3.75;100.00
70506;BME280;58032;49.820;6.274;2023-04-15T01:51:19;96637.66;;;3.83;100.00
70506;BME280;58032;49.820;6.274;2023-04-15T01:53:49;96630.84;;;3.84;100.00
70506;BME280;58032;49.820;6.274;2023-04-15T01:56:17;96638.19;;;3.77;100.00
70506;BME280;58032;49.820;6.274;2023-04-15T01:58:46;96636.78;;;3.86;100.00
70506;BME280;58032;49.820;6.274;2023-04-15T02:01:14;96635.75;;;3.63;100.00
70506;BME280;58032;49.820;6.274;2023-04-15T02:03:44;96639.94;;;3.71;100.00
70506;BME280;58032;49.820;6.274;2023-04-15T02:06:12;96630.94;;;3.80;100.00
70506;BME280;58032;49.820;6.274;2023-04-15T02:08:40;96638.56;;;3.92;100.00
70506;BME280;58032;49.820;6.274;2023-04-15T02:11:09;96625.34;;;3.96;100.00
70506;BME280;58032;49.820;6.274;2023-04-15T02:13:37;96627.34;;;3.96;100.00
70506;BME280;58032;49.820;6.274;2023-04-15T02:16:14;96628.28;;;4.06;100.00
70506;BME280;58032;49.820;6.274;2023-04-15T02:18:44;96625.31;;;4.13;100.00
70506;BME280;58032;49.820;6.274;2023-04-15T02:21:13;96632.69;;;3.90;100.00
70506;BME280;58032;49.820;6.274;2023-04-15T02:23:41;96628.94;;;3.80;100.00
70506;BME280;58032;49.820;6.274;2023-04-15T02:26:13;96631.13;;;3.89;100.00
70506;BME280;58032;49.820;6.274;2023-04-15T02:28:41;96627.63;;;3.85;100.00
70506;BME280;58032;49.820;6.274;2023-04-15T02:31:09;96635.78;;;3.92;100.00
70506;BME280;58032;49.820;6.274;2023-04-15T02:33:37;96639.19;;;4.00;100.00
70506;BME280;58032;49.820;6.274;2023-04-15T02:36:06;96634.00;;;4.15;100.00
70506;BME280;58032;49.820;6.274;2023-04-15T02:38:35;96635.72;;;4.25;100.00
70506;BME280;58032;49.820;6.274;2023-04-15T02:41:03;96631.81;;;4.23;100.00
70506;BME280;58032;49.820;6.274;2023-04-15T02:43:31;96634.53;;;4.10;100.00
70506;BME280;58032;49.820;6.274;2023-04-15T02:46:00;96638.06;;;3.98;100.00
70506;BME280;58032;49.820;6.274;2023-04-15T02:48:28;96643.13;;;3.86;100.00
70506;BME280;58032;49.820;6.274;2023-04-15T02:51:14;96642.34;;;3.86;100.00
70506;BME280;58032;49.820;6.274;2023-04-15T02:53:42;96642.44;;;3.82;100.00
70506;BME280;58032;49.820;6.274;2023-04-15T02:56:11;96650.09;;;3.78;100.00
70506;BME280;58032;49.820;6.274;2023-04-15T02:58:39;96647.66;;;3.80;100.00
70506;BME280;58032;49.820;6.274;2023-04-15T03:01:07;96648.94;;;3.92;100.00
70506;BME280;58032;49.820;6.274;2023-04-15T03:03:36;96640.09;;;4.10;100.00
70506;BME280;58032;49.820;6.274;2023-04-15T03:06:04;96642.66;;;4.34;100.00
70506;BME280;58032;49.820;6.274;2023-04-15T03:08:32;96646.00;;;4.41;100.00
70506;BME280;58032;49.820;6.274;2023-04-15T03:11:00;96646.69;;;4.46;100.00
70506;BME280;58032;49.820;6.274;2023-04-15T03:13:29;96640.69;;;4.47;100.00
70506;BME280;58032;49.820;6.274;2023-04-15T03:16:00;96636.88;;;4.41;100.00
70506;BME280;58032;49.820;6.274;2023-04-15T03:18:30;96636.88;;;4.41;100.00
70506;BME280;58032;49.820;6.274;2023-04-15T03:21:02;96633.94;;;4.32;100.00
70506;BME280;58032;49.820;6.274;2023-04-15T03:23:34;96631.22;;;4.15;100.00
70506;BME280;58032;49.820;6.274;2023-04-15T03:26:03;96630.03;;;4.00;100.00
70506;BME280;58032;49.820;6.274;2023-04-15T03:28:33;96634.47;;;3.97;100.00
70506;BME280;58032;49.820;6.274;2023-04-15T03:31:02;96631.81;;;3.77;100.00
70506;BME280;58032;49.820;6.274;2023-04-15T03:33:30;96641.06;;;3.41;100.00
70506;BME280;58032;49.820;6.274;2023-04-15T03:35:59;96645.22;;;3.16;100.00
70506;BME280;58032;49.820;6.274;2023-04-15T03:38:27;96648.38;;;3.18;100.00
70506;BME280;58032;49.820;6.274;2023-04-15T03:40:55;96645.13;;;3.20;100.00
70506;BME280;58032;49.820;6.274;2023-04-15T03:43:23;96649.41;;;3.24;100.00
70506;BME280;58032;49.820;6.274;2023-04-15T03:45:51;96650.97;;;3.25;100.00
70506;BME280;58032;49.820;6.274;2023-04-15T03:48:19;96645.84;;;3.24;100.00
70506;BME280;58032;49.820;6.274;2023-04-15T03:50:48;96648.56;;;3.27;100.00
70506;BME280;58032;49.820;6.274;2023-04-15T03:53:16;96649.06;;;3.39;100.00
70506;BME280;58032;49.820;6.274;2023-04-15T03:55:44;96648.03;;;3.49;100.00
70506;BME280;58032;49.820;6.274;2023-04-15T03:58:12;96658.44;;;3.61;100.00
70506;BME280;58032;49.820;6.274;2023-04-15T04:00:40;96662.22;;;3.71;100.00
70506;BME280;58032;49.820;6.274;2023-04-15T04:03:09;96656.28;;;3.86;100.00
70506;BME280;58032;49.820;6.274;2023-04-15T04:05:37;96667.31;;;3.89;100.00
70506;BME280;58032;49.820;6.274;2023-04-15T04:08:08;96657.78;;;4.03;100.00
70506;BME280;58032;49.820;6.274;2023-04-15T04:10:36;96662.03;;;4.08;100.00
70506;BME280;58032;49.820;6.274;2023-04-15T04:13:04;96665.09;;;4.14;100.00
70506;BME280;58032;49.820;6.274;2023-04-15T04:15:32;96669.63;;;4.07;100.00
70506;BME280;58032;49.820;6.274;2023-04-15T04:18:00;96668.00;;;3.93;100.00
70506;BME280;58032;49.820;6.274;2023-04-15T04:20:29;96667.66;;;3.91;100.00
70506;BME280;58032;49.820;6.274;2023-04-15T04:22:58;96675.59;;;3.93;100.00
70506;BME280;58032;49.820;6.274;2023-04-15T04:25:27;96666.19;;;3.87;100.00
70506;BME280;58032;49.820;6.274;2023-04-15T04:27:55;96671.22;;;3.92;100.00
70506;BME280;58032;49.820;6.274;2023-04-15T04:30:23;96675.31;;;4.04;100.00
70506;BME280;58032;49.820;6.274;2023-04-15T04:32:51;96676.31;;;4.10;100.00
70506;BME280;58032;49.820;6.274;2023-04-15T04:35:20;96684.13;;;4.15;100.00
70506;BME280;58032;49.820;6.274;2023-04-15T04:37:48;96688.16;;;4.14;100.00
70506;BME280;58032;49.820;6.274;2023-04-15T04:40:18;96685.09;;;4.25;100.00
70506;BME280;58032;49.820;6.274;2023-04-15T04:42:46;96687.19;;;4.21;100.00
70506;BME280;58032;49.820;6.274;2023-04-15T04:45:14;96696.38;;;4.05;100.00
70506;BME280;58032;49.820;6.274;2023-04-15T04:47:43;96690.94;;;4.14;100.00
70506;BME280;58032;49.820;6.274;2023-04-15T04:50:11;96688.41;;;4.20;100.00
70506;BME280;58032;49.820;6.274;2023-04-15T04:52:39;96692.41;;;4.19;100.00
70506;BME280;58032;49.820;6.274;2023-04-15T04:55:07;96695.28;;;4.15;100.00
70506;BME280;58032;49.820;6.274;2023-04-15T04:57:36;96695.91;;;4.23;100.00
70506;BME280;58032;49.820;6.274;2023-04-15T05:00:06;96701.63;;;4.32;100.00
70506;BME280;58032;49.820;6.274;2023-04-15T05:02:35;96708.63;;;4.37;100.00
70506;BME280;58032;49.820;6.274;2023-04-15T05:05:04;96700.53;;;4.42;100.00
70506;BME280;58032;49.820;6.274;2023-04-15T05:07:33;96701.56;;;4.49;100.00
70506;BME280;58032;49.820;6.274;2023-04-15T05:10:01;96709.50;;;4.50;100.00
70506;BME280;58032;49.820;6.274;2023-04-15T05:12:30;96705.38;;;4.55;100.00
70506;BME280;58032;49.820;6.274;2023-04-15T05:14:59;96702.81;;;4.48;100.00
70506;BME280;58032;49.820;6.274;2023-04-15T05:17:27;96710.13;;;4.71;100.00
70506;BME280;58032;49.820;6.274;2023-04-15T05:19:55;96708.66;;;4.66;100.00
70506;BME280;58032;49.820;6.274;2023-04-15T05:22:23;96705.22;;;4.75;100.00
70506;BME280;58032;49.820;6.274;2023-04-15T05:24:52;96704.47;;;4.87;100.00
70506;BME280;58032;49.820;6.274;2023-04-15T05:27:20;96704.81;;;4.89;100.00
70506;BME280;58032;49.820;6.274;2023-04-15T05:29:49;96703.56;;;4.90;100.00
70506;BME280;58032;49.820;6.274;2023-04-15T05:32:17;96706.19;;;4.98;100.00
70506;BME280;58032;49.820;6.274;2023-04-15T05:34:45;96707.72;;;4.99;100.00
70506;BME280;58032;49.820;6.274;2023-04-15T05:37:13;96711.97;;;5.03;100.00
70506;BME280;58032;49.820;6.274;2023-04-15T05:39:42;96713.44;;;5.08;100.00
70506;BME280;58032;49.820;6.274;2023-04-15T05:42:10;96715.31;;;4.98;100.00
70506;BME280;58032;49.820;6.274;2023-04-15T05:44:39;96714.38;;;4.75;100.00
70506;BME280;58032;49.820;6.274;2023-04-15T05:47:07;96721.06;;;4.78;100.00
70506;BME280;58032;49.820;6.274;2023-04-15T05:49:36;96713.19;;;4.89;100.00
70506;BME280;58032;49.820;6.274;2023-04-15T05:52:04;96720.03;;;5.01;100.00
70506;BME280;58032;49.820;6.274;2023-04-15T05:54:33;96723.09;;;4.90;100.00
70506;BME280;58032;49.820;6.274;2023-04-15T05:57:01;96725.06;;;5.19;100.00
70506;BME280;58032;49.820;6.274;2023-04-15T05:59:29;96732.19;;;5.07;100.00
70506;BME280;58032;49.820;6.274;2023-04-15T06:01:57;96728.38;;;5.01;100.00
70506;BME280;58032;49.820;6.274;2023-04-15T06:04:26;96733.22;;;5.27;100.00
70506;BME280;58032;49.820;6.274;2023-04-15T06:06:54;96731.66;;;5.26;100.00
70506;BME280;58032;49.820;6.274;2023-04-15T06:09:22;96735.91;;;5.56;100.00
70506;BME280;58032;49.820;6.274;2023-04-15T06:11:50;96739.72;;;5.49;100.00
70506;BME280;58032;49.820;6.274;2023-04-15T06:14:18;96742.19;;;5.73;100.00
70506;BME280;58032;49.820;6.274;2023-04-15T06:16:46;96740.38;;;5.53;100.00
70506;BME280;58032;49.820;6.274;2023-04-15T06:19:15;96742.72;;;5.68;100.00
70506;BME280;58032;49.820;6.274;2023-04-15T06:21:43;96744.41;;;5.78;100.00
70506;BME280;58032;49.820;6.274;2023-04-15T06:24:12;96746.41;;;5.78;100.00
70506;BME280;58032;49.820;6.274;2023-04-15T06:26:40;96751.66;;;5.76;100.00
70506;BME280;58032;49.820;6.274;2023-04-15T06:29:08;96752.66;;;5.82;100.00
70506;BME280;58032;49.820;6.274;2023-04-15T06:31:36;96754.91;;;6.00;100.00
70506;BME280;58032;49.820;6.274;2023-04-15T06:34:04;96763.50;;;6.06;100.00
70506;BME280;58032;49.820;6.274;2023-04-15T06:36:33;96764.97;;;6.10;100.00
70506;BME280;58032;49.820;6.274;2023-04-15T06:39:01;96760.22;;;6.33;100.00
70506;BME280;58032;49.820;6.274;2023-04-15T06:41:29;96762.66;;;6.44;100.00
70506;BME280;58032;49.820;6.274;2023-04-15T06:43:58;96763.16;;;6.52;100.00
70506;BME280;58032;49.820;6.274;2023-04-15T06:46:26;96764.34;;;6.63;100.00
70506;BME280;58032;49.820;6.274;2023-04-15T06:48:54;96763.09;;;6.77;100.00
70506;BME280;58032;49.820;6.274;2023-04-15T06:51:22;96766.06;;;7.05;100.00
70506;BME280;58032;49.820;6.274;2023-04-15T06:53:51;96768.19;;;7.45;100.00
70506;BME280;58032;49.820;6.274;2023-04-15T06:56:20;96767.34;;;7.67;100.00
70506;BME280;58032;49.820;6.274;2023-04-15T06:58:48;96769.16;;;7.52;100.00
70506;BME280;58032;49.820;6.274;2023-04-15T07:01:16;96779.41;;;7.45;100.00
70506;BME280;58032;49.820;6.274;2023-04-15T07:03:45;96770.06;;;7.80;100.00
70506;BME280;58032;49.820;6.274;2023-04-15T07:06:13;96771.69;;;8.50;100.00
70506;BME280;58032;49.820;6.274;2023-04-15T07:08:41;96773.41;;;9.12;100.00
70506;BME280;58032;49.820;6.274;2023-04-15T07:11:09;96773.25;;;9.16;100.00
70506;BME280;58032;49.820;6.274;2023-04-15T07:13:38;96774.50;;;8.78;100.00
70506;BME280;58032;49.820;6.274;2023-04-15T07:16:06;96773.09;;;9.19;100.00
70506;BME280;58032;49.820;6.274;2023-04-15T07:18:34;96771.41;;;9.74;100.00
70506;BME280;58032;49.820;6.274;2023-04-15T07:21:02;96782.06;;;10.04;100.00
70506;BME280;58032;49.820;6.274;2023-04-15T07:23:30;96779.47;;;9.91;100.00
70506;BME280;58032;49.820;6.274;2023-04-15T07:25:59;96776.75;;;9.96;100.00
70506;BME280;58032;49.820;6.274;2023-04-15T07:28:27;96779.09;;;10.32;100.00
70506;BME280;58032;49.820;6.274;2023-04-15T07:30:56;96779.09;;;10.32;100.00
70506;BME280;58032;49.820;6.274;2023-04-15T07:33:24;96781.88;;;10.65;100.00
70506;BME280;58032;49.820;6.274;2023-04-15T07:35:52;96785.59;;;9.80;100.00
70506;BME280;58032;49.820;6.274;2023-04-15T07:38:21;96788.69;;;9.82;100.00
70506;BME280;58032;49.820;6.274;2023-04-15T07:40:49;96785.09;;;10.73;100.00
70506;BME280;58032;49.820;6.274;2023-04-15T07:43:17;96787.22;;;11.56;100.00
70506;BME280;58032;49.820;6.274;2023-04-15T07:45:47;96790.31;;;11.44;100.00
70506;BME280;58032;49.820;6.274;2023-04-15T07:48:15;96786.81;;;11.34;100.00
70506;BME280;58032;49.820;6.274;2023-04-15T07:50:43;96786.81;;;12.65;100.00
70506;BME280;58032;49.820;6.274;2023-04-15T07:53:11;96783.63;;;13.19;100.00
70506;BME280;58032;49.820;6.274;2023-04-15T07:55:40;96794.44;;;13.00;100.00
70506;BME280;58032;49.820;6.274;2023-04-15T07:58:08;96799.06;;;11.61;100.00
70506;BME280;58032;49.820;6.274;2023-04-15T08:00:36;96807.19;;;10.74;100.00
70506;BME280;58032;49.820;6.274;2023-04-15T08:03:05;96798.06;;;12.24;100.00
70506;BME280;58032;49.820;6.274;2023-04-15T08:05:33;96793.19;;;13.01;100.00
70506;BME280;58032;49.820;6.274;2023-04-15T08:08:01;96799.09;;;13.03;96.38
70506;BME280;58032;49.820;6.274;2023-04-15T08:10:29;96799.31;;;12.79;99.29
70506;BME280;58032;49.820;6.274;2023-04-15T08:12:58;96806.53;;;13.01;99.62
70506;BME280;58032;49.820;6.274;2023-04-15T08:15:26;96810.72;;;12.28;100.00
70506;BME280;58032;49.820;6.274;2023-04-15T08:17:55;96814.78;;;12.83;100.00
70506;BME280;58032;49.820;6.274;2023-04-15T08:20:23;96806.28;;;13.45;94.44
70506;BME280;58032;49.820;6.274;2023-04-15T08:22:51;96813.78;;;13.28;97.41
70506;BME280;58032;49.820;6.274;2023-04-15T08:25:20;96809.47;;;13.85;92.03
70506;BME280;58032;49.820;6.274;2023-04-15T08:27:48;96821.97;;;13.26;95.54
70506;BME280;58032;49.820;6.274;2023-04-15T08:30:16;96819.97;;;13.06;96.60
70506;BME280;58032;49.820;6.274;2023-04-15T08:32:45;96826.25;;;13.16;99.16
70506;BME280;58032;49.820;6.274;2023-04-15T08:35:16;96828.31;;;12.59;90.93
70506;BME280;58032;49.820;6.274;2023-04-15T08:37:45;96832.81;;;12.50;94.90
70506;BME280;58032;49.820;6.274;2023-04-15T08:40:14;96837.06;;;12.25;90.46
70506;BME280;58032;49.820;6.274;2023-04-15T08:42:48;96832.22;;;12.61;86.68
70506;BME280;58032;49.820;6.274;2023-04-15T08:45:16;96831.88;;;12.39;90.86
70506;BME280;58032;49.820;6.274;2023-04-15T08:47:46;96835.34;;;13.25;90.96
70506;BME280;58032;49.820;6.274;2023-04-15T08:50:16;96836.19;;;13.32;85.84
70506;BME280;58032;49.820;6.274;2023-04-15T08:52:45;96835.13;;;13.29;83.60
70506;BME280;58032;49.820;6.274;2023-04-15T08:55:14;96835.78;;;13.18;82.31
70506;BME280;58032;49.820;6.274;2023-04-15T08:57:43;96841.19;;;12.60;85.71
70506;BME280;58032;49.820;6.274;2023-04-15T09:00:12;96840.91;;;13.20;81.41
70506;BME280;58032;49.820;6.274;2023-04-15T09:02:41;96843.91;;;12.54;88.07
70506;BME280;58032;49.820;6.274;2023-04-15T09:05:09;96840.31;;;12.89;87.11
70506;BME280;58032;49.820;6.274;2023-04-15T09:07:37;96843.97;;;12.39;81.84
70506;BME280;58032;49.820;6.274;2023-04-15T09:10:06;96844.19;;;12.92;82.10
70506;BME280;58032;49.820;6.274;2023-04-15T09:12:35;96853.94;;;12.91;74.40
70506;BME280;58032;49.820;6.274;2023-04-15T09:15:04;96855.09;;;12.63;78.45
70506;BME280;58032;49.820;6.274;2023-04-15T09:17:33;96852.88;;;12.53;59.75
70506;BME280;58032;49.820;6.274;2023-04-15T09:20:11;96862.91;;;12.89;76.92
70506;BME280;58032;49.820;6.274;2023-04-15T09:22:41;96857.63;;;13.18;69.84
70506;BME280;58032;49.820;6.274;2023-04-15T09:27:51;96874.94;;;12.69;75.50
70506;BME280;58032;49.820;6.274;2023-04-15T09:30:20;96875.63;;;12.28;69.28
70506;BME280;58032;49.820;6.274;2023-04-15T09:32:55;96888.97;;;12.13;75.43
70506;BME280;58032;49.820;6.274;2023-04-15T09:35:24;96886.13;;;12.28;76.75
70506;BME280;58032;49.820;6.274;2023-04-15T09:38:04;96892.06;;;12.15;87.17
70506;BME280;58032;49.820;6.274;2023-04-15T09:40:34;96888.84;;;12.37;87.90
70506;BME280;58032;49.820;6.274;2023-04-15T09:43:04;96902.56;;;11.84;76.46
70506;BME280;58032;49.820;6.274;2023-04-15T09:45:34;96892.25;;;12.41;85.54
70506;BME280;58032;49.820;6.274;2023-04-15T09:48:20;96900.19;;;11.68;79.17
70506;BME280;58032;49.820;6.274;2023-04-15T09:50:48;96905.09;;;12.42;84.79
70506;BME280;58032;49.820;6.274;2023-04-15T09:53:18;96900.72;;;12.41;79.49
70506;BME280;58032;49.820;6.274;2023-04-15T09:55:58;96903.09;;;12.63;87.49
70506;BME280;58032;49.820;6.274;2023-04-15T09:58:29;96901.94;;;12.70;81.08
70506;BME280;58032;49.820;6.274;2023-04-15T10:00:59;96909.06;;;12.50;78.27
70506;BME280;58032;49.820;6.274;2023-04-15T10:03:30;96893.63;;;12.31;79.48
70506;BME280;58032;49.820;6.274;2023-04-15T10:06:00;96905.50;;;13.06;83.98
70506;BME280;58032;49.820;6.274;2023-04-15T10:08:30;96911.78;;;12.60;75.98
70506;BME280;58032;49.820;6.274;2023-04-15T10:11:01;96921.06;;;12.60;70.85
70506;BME280;58032;49.820;6.274;2023-04-15T10:13:30;96931.44;;;11.94;83.17
70506;BME280;58032;49.820;6.274;2023-04-15T10:16:11;96914.53;;;11.79;79.06
70506;BME280;58032;49.820;6.274;2023-04-15T10:18:47;96913.00;;;12.38;80.92
70506;BME280;58032;49.820;6.274;2023-04-15T10:21:17;96917.19;;;12.28;78.36
70506;BME280;58032;49.820;6.274;2023-04-15T10:23:46;96930.78;;;11.99;82.83
70506;BME280;58032;49.820;6.274;2023-04-15T10:26:15;96919.06;;;11.77;82.16
70506;BME280;58032;49.820;6.274;2023-04-15T10:28:44;96929.63;;;12.06;80.18
70506;BME280;58032;49.820;6.274;2023-04-15T10:31:15;96931.25;;;13.08;80.97
70506;BME280;58032;49.820;6.274;2023-04-15T10:33:45;96925.47;;;13.18;67.29
70506;BME280;58032;49.820;6.274;2023-04-15T10:36:14;96920.91;;;13.05;61.22
70506;BME280;58032;49.820;6.274;2023-04-15T10:38:44;96926.66;;;13.32;64.93
70506;BME280;58032;49.820;6.274;2023-04-15T10:41:16;96925.59;;;13.08;62.98
70506;BME280;58032;49.820;6.274;2023-04-15T10:43:52;96948.91;;;12.23;74.04
70506;BME280;58032;49.820;6.274;2023-04-15T10:46:23;96946.06;;;12.08;67.53
70506;BME280;58032;49.820;6.274;2023-04-15T10:48:52;96949.81;;;11.90;68.12
70506;BME280;58032;49.820;6.274;2023-04-15T10:51:30;96950.94;;;11.53;71.93
70506;BME280;58032;49.820;6.274;2023-04-15T10:53:59;96953.47;;;11.66;75.14
70506;BME280;58032;49.820;6.274;2023-04-15T10:56:28;96955.72;;;12.16;73.72
70506;BME280;58032;49.820;6.274;2023-04-15T10:58:58;96950.00;;;12.91;78.07
70506;BME280;58032;49.820;6.274;2023-04-15T11:01:54;96957.72;;;12.75;76.50
70506;BME280;58032;49.820;6.274;2023-04-15T11:04:57;96950.81;;;12.61;71.63
70506;BME280;58032;49.820;6.274;2023-04-15T11:12:59;96958.78;;;13.49;67.04
70506;BME280;58032;49.820;6.274;2023-04-15T11:15:37;96978.28;;;13.11;72.39
70506;BME280;58032;49.820;6.274;2023-04-15T11:18:25;96961.16;;;13.36;82.21
70506;BME280;58032;49.820;6.274;2023-04-15T11:20:59;96976.16;;;12.41;72.51
70506;BME280;58032;49.820;6.274;2023-04-15T11:23:39;96985.59;;;12.38;54.90
70506;BME280;58032;49.820;6.274;2023-04-15T11:26:11;96974.41;;;12.58;54.94
70506;BME280;58032;49.820;6.274;2023-04-15T11:28:41;96983.19;;;12.60;53.43
70506;BME280;58032;49.820;6.274;2023-04-15T11:31:11;96982.03;;;13.03;59.83
70506;BME280;58032;49.820;6.274;2023-04-15T11:33:57;96989.25;;;13.39;46.28
70506;BME280;58032;49.820;6.274;2023-04-15T11:36:27;96998.69;;;13.36;44.13
70506;BME280;58032;49.820;6.274;2023-04-15T11:38:57;97004.16;;;13.40;50.20
70506;BME280;58032;49.820;6.274;2023-04-15T11:41:25;97017.53;;;13.60;49.73
70506;BME280;58032;49.820;6.274;2023-04-15T11:43:53;97012.28;;;12.51;47.15
70506;BME280;58032;49.820;6.274;2023-04-15T11:46:28;96999.97;;;13.35;52.94
70506;BME280;58032;49.820;6.274;2023-04-15T11:48:56;97000.28;;;13.58;59.43
70506;BME280;58032;49.820;6.274;2023-04-15T11:51:24;97009.63;;;13.43;58.90
70506;BME280;58032;49.820;6.274;2023-04-15T11:53:51;97008.78;;;13.79;68.37
70506;BME280;58032;49.820;6.274;2023-04-15T11:56:23;97011.72;;;13.49;67.34
70506;BME280;58032;49.820;6.274;2023-04-15T11:58:56;97015.06;;;12.96;60.88
70506;BME280;58032;49.820;6.274;2023-04-15T12:01:37;97031.88;;;13.21;65.25
70506;BME280;58032;49.820;6.274;2023-04-15T12:04:17;97032.00;;;13.11;58.05
70506;BME280;58032;49.820;6.274;2023-04-15T12:06:50;97026.06;;;13.45;52.61
70506;BME280;58032;49.820;6.274;2023-04-15T12:09:17;97021.91;;;14.02;51.73
70506;BME280;58032;49.820;6.274;2023-04-15T12:11:50;97040.47;;;13.62;47.87
70506;BME280;58032;49.820;6.274;2023-04-15T12:14:28;97033.59;;;13.48;58.21
70506;BME280;58032;49.820;6.274;2023-04-15T12:17:02;97037.72;;;13.68;48.50
70506;BME280;58032;49.820;6.274;2023-04-15T12:19:38;97031.69;;;14.01;46.57
70506;BME280;58032;49.820;6.274;2023-04-15T12:22:08;97044.06;;;14.04;47.47
70506;BME280;58032;49.820;6.274;2023-04-15T12:24:37;97060.75;;;13.25;51.92
70506;BME280;58032;49.820;6.274;2023-04-15T12:27:08;97054.69;;;13.68;57.69
70506;BME280;58032;49.820;6.274;2023-04-15T12:29:36;97055.09;;;13.25;52.86
70506;BME280;58032;49.820;6.274;2023-04-15T12:32:05;97047.97;;;13.86;49.73
70506;BME280;58032;49.820;6.274;2023-04-15T12:34:35;97053.72;;;13.20;55.31
70506;BME280;58032;49.820;6.274;2023-04-15T12:37:04;97067.28;;;13.87;49.14
70506;BME280;58032;49.820;6.274;2023-04-15T12:39:34;97067.50;;;13.84;50.75
70506;BME280;58032;49.820;6.274;2023-04-15T12:42:03;97075.81;;;13.52;50.36
70506;BME280;58032;49.820;6.274;2023-04-15T12:44:31;97083.06;;;14.15;61.89
70506;BME280;58032;49.820;6.274;2023-04-15T12:46:58;97084.03;;;13.70;48.81
70506;BME280;58032;49.820;6.274;2023-04-15T12:49:26;97093.09;;;13.39;50.38
70506;BME280;58032;49.820;6.274;2023-04-15T12:51:55;97072.75;;;12.90;47.17
70506;BME280;58032;49.820;6.274;2023-04-15T12:54:23;97107.25;;;13.24;47.04
70506;BME280;58032;49.820;6.274;2023-04-15T12:56:50;97111.13;;;13.77;47.16
70506;BME280;58032;49.820;6.274;2023-04-15T12:59:17;97089.72;;;14.12;50.89
70506;BME280;58032;49.820;6.274;2023-04-15T13:01:45;97119.28;;;13.90;44.21
70506;BME280;58032;49.820;6.274;2023-04-15T13:04:13;97101.53;;;14.10;44.01
70506;BME280;58032;49.820;6.274;2023-04-15T13:06:40;97114.53;;;14.22;47.08
70506;BME280;58032;49.820;6.274;2023-04-15T13:09:07;97115.16;;;14.53;43.90
70506;BME280;58032;49.820;6.274;2023-04-15T13:11:34;97118.81;;;14.33;40.69
70506;BME280;58032;49.820;6.274;2023-04-15T13:14:03;97142.22;;;14.13;36.63
70506;BME280;58032;49.820;6.274;2023-04-15T13:16:31;97127.03;;;13.74;38.25
70506;BME280;58032;49.820;6.274;2023-04-15T13:18:59;97142.53;;;13.43;38.64